createdAt,value
2023-01-26T00:00:47.948Z,102323.06
2023-01-26T00:05:41.846Z,102316.22
2023-01-26T00:10:37.780Z,102323.09
2023-01-26T00:15:31.030Z,102200.13
2023-01-26T00:20:25.578Z,102315.38
2023-01-26T00:25:18.909Z,102311.09
2023-01-26T00:30:13.772Z,102148.06
2023-01-26T00:35:07.766Z,102252.13
2023-01-26T00:40:04.227Z,102294.81
2023-01-26T00:44:57.517Z,102226.47
2023-01-26T00:49:50.730Z,102287.94
2023-01-26T00:54:45.846Z,102223.06
2023-01-26T00:59:42.509Z,102207.72
2023-01-26T01:04:35.705Z,102257.22
2023-01-26T01:09:29.113Z,102278.56
2023-01-26T01:14:22.467Z,102224.75
2023-01-26T01:19:18.502Z,102165.91
2023-01-26T01:24:12.381Z,102169.28
2023-01-26T01:29:05.744Z,102232.38
2023-01-26T01:33:59.189Z,102153.88
2023-01-26T01:38:54.102Z,102226.38
2023-01-26T01:43:47.441Z,102176.88
2023-01-26T01:48:49.093Z,102176.03
2023-01-26T01:53:47.471Z,102160.63
2023-01-26T01:58:44.578Z,102120.56
2023-01-26T02:03:39.217Z,102163.16
2023-01-26T02:08:38.240Z,102042.94
2023-01-26T02:13:34.777Z,102204.09
2023-01-26T02:18:31.543Z,102163.13
2023-01-26T02:23:37.519Z,102089.84
2023-01-26T02:28:33.012Z,102151.19
2023-01-26T02:33:28.462Z,102170.81
2023-01-26T02:38:31.218Z,102113.72
2023-01-26T02:43:26.948Z,102162.31
2023-01-26T02:48:36.062Z,102197.28
2023-01-26T02:53:30.440Z,102192.97
2023-01-26T02:58:23.825Z,102176.72
2023-01-26T03:03:20.126Z,102140.91
2023-01-26T03:08:14.832Z,102169.00
2023-01-26T03:13:10.814Z,102157.03
2023-01-26T03:18:23.190Z,102103.25
2023-01-26T03:23:35.547Z,102088.72
2023-01-26T03:28:29.101Z,102132.19
2023-01-26T03:33:22.714Z,102124.47
2023-01-26T03:38:17.642Z,102052.00
2023-01-26T03:43:32.812Z,102009.41
2023-01-26T03:48:43.847Z,102055.44
2023-01-26T03:53:55.975Z,101980.38
2023-01-26T03:58:51.773Z,102097.06
2023-01-26T04:04:03.392Z,101984.59
2023-01-26T04:08:58.122Z,102045.81
2023-01-26T04:14:08.779Z,101920.63
2023-01-26T04:19:19.976Z,102062.84
2023-01-26T04:24:18.030Z,102062.88
2023-01-26T04:29:14.192Z,101999.81
2023-01-26T04:34:12.990Z,102032.19
2023-01-26T04:39:09.605Z,102061.16
2023-01-26T04:44:06.958Z,101999.03
2023-01-26T04:49:00.320Z,101938.56
2023-01-26T04:53:54.383Z,101958.13
2023-01-26T04:58:49.044Z,102023.66
2023-01-26T05:03:44.381Z,102057.72
2023-01-26T05:08:40.450Z,101970.00
2023-01-26T05:13:36.171Z,101934.25
2023-01-26T05:18:57.229Z,102048.34
2023-01-26T05:24:09.753Z,102050.06
2023-01-26T05:29:23.313Z,102006.63
2023-01-26T05:34:18.642Z,102010.84
2023-01-26T05:39:12.465Z,101901.84
2023-01-26T05:44:08.164Z,102000.56
2023-01-26T05:49:19.969Z,102030.41
2023-01-26T05:54:13.826Z,102012.56
2023-01-26T05:59:07.344Z,101848.25
2023-01-26T06:04:00.928Z,102015.91
2023-01-26T06:09:02.727Z,102032.03
2023-01-26T06:13:58.708Z,102017.66
2023-01-26T06:18:53.677Z,102015.91
2023-01-26T06:23:47.498Z,102021.81
2023-01-26T06:28:42.923Z,101989.44
2023-01-26T06:33:37.817Z,102002.13
2023-01-26T06:38:32.901Z,101978.31
2023-01-26T06:43:26.263Z,101974.88
2023-01-26T06:48:20.796Z,101973.16
2023-01-26T06:53:30.561Z,101929.63
2023-01-26T06:58:42.207Z,101936.34
2023-01-26T07:03:56.406Z,101972.81
2023-01-26T07:08:50.881Z,101906.28
2023-01-26T07:13:44.296Z,101945.31
2023-01-26T07:18:38.019Z,101933.31
2023-01-26T07:23:34.842Z,101910.22
2023-01-26T07:28:30.706Z,101921.38
2023-01-26T07:33:23.952Z,101868.63
2023-01-26T07:38:17.046Z,101894.91
2023-01-26T07:43:15.076Z,101867.69
2023-01-26T07:48:15.878Z,101917.69
2023-01-26T07:53:09.718Z,101916.78
2023-01-26T07:58:02.949Z,101902.16
2023-01-26T08:02:57.679Z,101897.81
2023-01-26T08:07:50.890Z,101888.28
2023-01-26T08:12:44.110Z,101893.31
2023-01-26T08:17:38.624Z,101897.53
2023-01-26T08:22:33.173Z,101850.78
2023-01-26T08:27:26.240Z,101867.78
2023-01-26T08:32:19.318Z,101828.69
2023-01-26T08:37:12.594Z,101904.28
2023-01-26T08:42:07.486Z,101899.94
2023-01-26T08:47:00.697Z,101838.59
2023-01-26T08:51:56.304Z,101875.84
2023-01-26T08:56:49.579Z,101849.41
2023-01-26T09:01:44.156Z,101856.09
2023-01-26T09:06:37.363Z,101833.88
2023-01-26T09:11:30.617Z,101863.56
2023-01-26T09:16:25.223Z,101817.59
2023-01-26T09:21:20.635Z,101844.59
2023-01-26T09:26:13.886Z,101774.13
2023-01-26T09:31:08.536Z,101819.72
2023-01-26T09:36:05.455Z,101836.59
2023-01-26T09:41:06.745Z,101822.91
2023-01-26T09:46:07.731Z,101817.81
2023-01-26T09:51:06.099Z,101780.28
2023-01-26T09:56:01.421Z,101783.44
2023-01-26T10:01:01.450Z,101756.16
2023-01-26T10:06:02.572Z,101712.72
2023-01-26T10:11:20.841Z,101707.53
2023-01-26T10:16:16.433Z,101705.78
2023-01-26T10:21:12.114Z,101756.50
2023-01-26T10:26:14.811Z,101760.66
2023-01-26T10:31:15.447Z,101751.97
2023-01-26T10:36:13.631Z,101707.72
2023-01-26T10:41:11.382Z,101729.56
2023-01-26T10:46:05.684Z,101728.59
2023-01-26T10:51:17.484Z,101656.19
2023-01-26T10:56:16.338Z,101669.81
2023-01-26T11:01:12.621Z,101683.13
2023-01-26T11:06:14.653Z,101655.00
2023-01-26T11:11:10.563Z,101651.44
2023-01-26T11:16:11.649Z,101577.34
2023-01-26T11:21:12.941Z,101640.56
2023-01-26T11:26:41.192Z,101576.75
2023-01-26T11:31:45.157Z,101624.06
2023-01-26T11:36:50.851Z,101567.34
2023-01-26T11:41:57.414Z,101593.66
2023-01-26T11:47:02.900Z,101578.22
2023-01-26T11:52:11.042Z,101609.16
2023-01-26T11:57:16.430Z,101599.75
2023-01-26T12:02:28.869Z,101569.06
2023-01-26T12:07:28.425Z,101574.03
2023-01-26T12:12:28.320Z,101558.66
2023-01-26T12:17:37.833Z,101483.03
2023-01-26T12:22:36.064Z,101539.69
2023-01-26T12:27:36.317Z,101547.47
2023-01-26T12:32:32.513Z,101536.38
2023-01-26T12:37:48.459Z,101498.16
2023-01-26T12:42:50.865Z,101480.50
2023-01-26T12:47:49.755Z,101489.59
2023-01-26T12:52:49.289Z,101502.16
2023-01-26T12:57:49.234Z,101451.13
2023-01-26T13:02:53.522Z,101492.47
2023-01-26T13:08:01.629Z,101495.00
2023-01-26T13:18:54.762Z,101480.31
2023-01-26T13:23:58.208Z,101346.78
2023-01-26T13:29:36.429Z,101257.03
2023-01-26T13:35:03.996Z,101469.84
2023-01-26T13:40:59.333Z,101354.88
2023-01-26T13:46:35.100Z,101423.22
2023-01-26T13:58:00.422Z,101336.63
2023-01-26T14:03:05.587Z,101429.50
2023-01-26T14:08:16.378Z,101387.78
2023-01-26T14:13:37.447Z,101187.34
2023-01-26T14:18:54.940Z,101298.50
2023-01-26T14:30:15.710Z,101227.13
2023-01-26T14:35:28.987Z,101288.56
2023-01-26T14:53:44.051Z,101204.25
2023-01-26T14:59:21.491Z,101253.09
2023-01-26T15:05:12.704Z,101309.44
2023-01-26T15:11:39.777Z,101372.69
2023-01-26T15:17:02.267Z,101309.97
2023-01-26T15:22:58.751Z,101353.66
2023-01-26T15:28:50.579Z,101295.06
2023-01-26T15:34:53.074Z,101062.03
2023-01-26T15:40:49.863Z,101296.34
2023-01-26T15:52:35.682Z,101151.59
2023-01-26T16:04:04.054Z,101255.78
2023-01-26T16:09:42.154Z,101298.88
2023-01-26T16:21:58.209Z,101030.63
2023-01-26T16:28:53.399Z,101279.22
2023-01-26T16:33:38.566Z,101138.31
2023-01-26T16:39:57.567Z,101157.00
2023-01-26T16:50:55.480Z,101245.66
2023-01-26T16:56:34.373Z,100959.13
2023-01-26T17:08:15.266Z,101114.59
2023-01-26T17:13:54.817Z,101215.41
2023-01-26T17:32:20.204Z,101195.06
2023-01-26T17:37:55.876Z,101186.34
2023-01-26T17:43:47.763Z,101141.13
2023-01-26T17:49:15.673Z,101166.00
2023-01-26T17:55:10.901Z,101164.88
2023-01-26T18:07:20.290Z,100944.97
2023-01-26T18:19:54.301Z,101036.88
2023-01-26T18:44:29.608Z,100904.72
2023-01-26T18:50:07.568Z,100990.88
2023-01-26T18:55:35.973Z,100970.56
2023-01-26T19:07:20.262Z,101018.69
2023-01-26T19:24:51.723Z,101078.22
2023-01-26T19:30:34.457Z,100925.69
2023-01-26T19:36:32.315Z,101049.78
2023-01-26T19:42:21.723Z,101044.94
2023-01-26T19:47:58.727Z,100982.47
2023-01-26T19:53:32.199Z,100777.63
2023-01-26T19:59:03.982Z,100872.94
2023-01-26T20:04:14.854Z,100929.41
2023-01-26T20:10:22.142Z,100921.09
2023-01-26T20:29:02.666Z,100858.59
2023-01-26T20:34:45.911Z,100793.97
2023-01-26T20:41:06.771Z,100929.56
2023-01-26T21:05:15.514Z,100744.44
2023-01-26T21:11:07.328Z,100919.84
2023-01-26T21:33:58.675Z,100837.28
2023-01-26T21:51:02.422Z,100656.34
2023-01-26T21:56:43.215Z,100669.75
2023-01-26T22:07:39.157Z,100737.75
2023-01-26T22:12:51.766Z,100858.59
2023-01-26T22:18:14.441Z,100795.41
2023-01-26T22:29:53.486Z,100588.66
2023-01-26T22:35:54.464Z,100830.81
2023-01-26T22:41:23.001Z,100773.66
2023-01-26T22:46:42.592Z,100719.34
2023-01-26T22:51:54.395Z,100741.78
2023-01-26T22:57:06.107Z,100608.16
2023-01-26T23:08:51.901Z,100757.53
2023-01-26T23:14:15.260Z,100698.78
2023-01-26T23:19:33.868Z,100516.56
2023-01-26T23:24:35.767Z,100708.53
2023-01-26T23:30:41.580Z,100515.75
2023-01-26T23:35:48.315Z,100623.78
2023-01-26T23:41:06.373Z,100615.06
2023-01-26T23:46:26.623Z,100601.69
2023-01-26T23:51:41.120Z,100734.25
2023-01-26T23:57:10.855Z,100735.09
